Time;durP1;ratioP1;P1;durP2;ratioP2;P2;SDS_P1;SDS_P2;PMS_P1;PMS_P2;Temp;Humidity;BMP_temperature;BMP_pressure;BME280_temperature;BME280_humidity;BME280_pressure;Samples;Min_cycle;Max_cycle;Signal;HPM_P1;HPM_P2
2023/01/09 00:01:26;;;;;;;25.02;13.65;;;-12.70;94.90;;;;;;5038555;28;20137;-79
2023/01/09 00:04:30;;;;;;;24.08;11.55;;;-12.70;94.90;;;;;;5017964;28;20470;-79
2023/01/09 00:07:33;;;;;;;18.17;9.32;;;-12.70;95.10;;;;;;5023375;28;20029;-81
2023/01/09 00:10:36;;;;;;;24.77;11.90;;;-12.70;95.10;;;;;;5035811;28;20025;-79
2023/01/09 00:13:39;;;;;;;21.15;10.32;;;-12.70;95.10;;;;;;5036543;28;20430;-79
2023/01/09 00:16:42;;;;;;;19.92;11.02;;;-12.70;95.10;;;;;;5028626;28;20029;-81
2023/01/09 00:19:44;;;;;;;22.77;12.05;;;-12.80;95.00;;;;;;5025873;28;20036;-81
2023/01/09 00:22:29;;;;;;;28.55;11.57;;;-12.90;95.00;;;;;;5024038;28;20017;-80
2023/01/09 00:25:13;;;;;;;24.30;12.20;;;-12.90;95.10;;;;;;5017233;28;20025;-80
2023/01/09 00:27:57;;;;;;;23.58;13.45;;;-13.00;95.10;;;;;;5035557;28;20030;-81
2023/01/09 00:30:42;;;;;;;25.30;12.25;;;-13.10;95.20;;;;;;5062612;28;20089;-81
2023/01/09 00:33:45;;;;;;;25.50;13.60;;;-13.10;95.30;;;;;;5038805;28;20037;-81
2023/01/09 00:36:30;;;;;;;25.95;12.70;;;-13.20;95.30;;;;;;5023230;28;20379;-81
2023/01/09 00:39:33;;;;;;;16.67;7.15;;;-13.30;95.30;;;;;;5034913;28;20026;-80
2023/01/09 00:42:36;;;;;;;20.75;12.43;;;-13.30;95.40;;;;;;5017247;28;20040;-81
2023/01/09 00:45:39;;;;;;;22.30;13.70;;;-13.30;95.40;;;;;;5034598;28;20021;-81
2023/01/09 00:48:30;;;;;;;22.05;12.02;;;-13.40;95.40;;;;;;5034633;28;20505;-82
2023/01/09 00:51:33;;;;;;;18.67;10.82;;;-13.40;95.40;;;;;;5034794;28;20034;-82
2023/01/09 00:54:36;;;;;;;23.95;11.48;;;-13.50;95.30;;;;;;5034977;28;20044;-81
2023/01/09 00:57:39;;;;;;;20.40;11.25;;;-13.60;95.40;;;;;;5038285;28;20441;-82
2023/01/09 01:00:42;;;;;;;21.85;12.48;;;-13.60;95.40;;;;;;5054474;28;20477;-81
2023/01/09 01:03:45;;;;;;;31.92;13.90;;;-13.70;95.40;;;;;;5053771;28;20405;-79
2023/01/09 01:09:51;;;;;;;21.02;13.23;;;-13.80;95.30;;;;;;5024469;28;20063;-81
2023/01/09 01:12:54;;;;;;;25.90;13.73;;;-13.90;95.20;;;;;;5037532;28;20110;-81
2023/01/09 01:15:57;;;;;;;19.17;13.75;;;-14.10;95.10;;;;;;5034536;28;20026;-80
2023/01/09 01:19:00;;;;;;;28.63;16.20;;;-14.20;95.20;;;;;;5025527;28;20025;-81
2023/01/09 01:21:45;;;;;;;23.45;14.10;;;-14.20;95.20;;;;;;5022248;28;20052;-79
2023/01/09 01:24:48;;;;;;;22.23;14.15;;;-14.30;95.10;;;;;;5034085;28;20031;-81
2023/01/09 01:27:51;;;;;;;20.42;12.52;;;-14.40;95.10;;;;;;5016489;28;20552;-80
2023/01/09 01:30:54;;;;;;;20.20;10.27;;;-14.50;95.10;;;;;;5025173;28;20056;-81
2023/01/09 01:33:57;;;;;;;23.15;12.35;;;-14.60;95.10;;;;;;5022936;28;20030;-81
2023/01/09 01:37:00;;;;;;;23.67;11.00;;;-14.60;95.10;;;;;;5015942;28;20360;-80
2023/01/09 01:39:26;;;;;;;24.27;11.45;;;-14.60;95.20;;;;;;5033824;28;20049;-81
2023/01/09 01:42:29;;;;;;;16.93;9.83;;;-14.70;95.10;;;;;;5033897;28;20060;-79
2023/01/09 01:45:33;;;;;;;15.32;7.88;;;-14.70;95.20;;;;;;5033805;28;20092;-81
2023/01/09 01:48:09;;;;;;;25.08;14.35;;;-14.80;95.20;;;;;;5035177;28;20033;-80
2023/01/09 01:50:58;;;;;;;;;;;-14.80;95.40;;;;;;5045175;28;20037;-80
2023/01/09 01:53:45;;;;;;;22.38;12.07;;;-14.80;95.40;;;;;;5028207;28;19920;-80
2023/01/09 01:56:42;;;;;;;22.45;12.20;;;-14.80;95.30;;;;;;5034235;28;20434;-79
2023/01/09 01:59:35;;;;;;;22.30;14.43;;;-14.80;95.30;;;;;;5031727;28;20079;-80
2023/01/09 02:02:21;;;;;;;26.17;12.13;;;-14.80;95.30;;;;;;5033500;28;20038;-79
2023/01/09 02:05:06;;;;;;;21.02;11.65;;;-14.80;95.30;;;;;;5033546;28;20440;-80
2023/01/09 02:08:10;;;;;;;27.27;16.33;;;-14.80;95.30;;;;;;5015497;28;20473;-80
2023/01/09 02:10:55;;;;;;;28.52;15.48;;;-14.80;95.20;;;;;;5033304;28;20029;-80
2023/01/09 02:13:39;;;;;;;21.00;12.63;;;-14.90;95.00;;;;;;5027434;28;20033;-77
2023/01/09 02:16:44;;;;;;;11.05;9.05;;;-14.90;94.90;;;;;;5033370;28;20027;-80
2023/01/09 02:19:47;;;;;;;19.20;11.52;;;-14.90;94.80;;;;;;5019796;28;20425;-80
2023/01/09 02:22:35;;;;;;;23.45;15.43;;;-15.10;94.50;;;;;;5032975;28;20018;-79
2023/01/09 02:25:39;;;;;;;19.92;13.40;;;-15.20;94.40;;;;;;5025857;28;20021;-80
2023/01/09 02:28:42;;;;;;;23.45;14.25;;;-15.30;94.30;;;;;;5031900;28;20041;-81
2023/01/09 02:31:45;;;;;;;36.13;13.18;;;-15.40;94.20;;;;;;5020174;28;20070;-79
2023/01/09 02:34:43;;;;;;;24.15;12.95;;;-15.60;94.00;;;;;;5032715;28;20070;-80
2023/01/09 02:37:46;;;;;;;20.13;11.70;;;-15.60;94.20;;;;;;5026200;28;20112;-79
2023/01/09 02:40:34;;;;;;;22.25;11.18;;;-15.60;94.30;;;;;;5025333;28;20021;-80
2023/01/09 02:43:19;;;;;;;16.77;9.07;;;-15.60;94.60;;;;;;5034229;28;20036;-79
2023/01/09 02:46:03;;;;;;;20.48;9.60;;;-15.70;94.40;;;;;;5032863;28;20112;-78
2023/01/09 02:48:51;;;;;;;14.13;7.90;;;-15.70;94.50;;;;;;5032466;28;20025;-78
2023/01/09 02:51:42;;;;;;;20.73;10.95;;;-15.80;94.20;;;;;;5032585;28;20413;-79
2023/01/09 02:54:49;;;;;;;22.58;9.60;;;-16.00;93.90;;;;;;5014779;28;20021;-79
2023/01/09 02:57:54;;;;;;;19.95;8.75;;;-16.00;94.00;;;;;;5031085;28;20017;-79
2023/01/09 03:00:57;;;;;;;22.75;13.05;;;-16.10;94.00;;;;;;5031924;28;20064;-79
2023/01/09 03:04:00;;;;;;;20.48;10.45;;;-16.20;94.00;;;;;;5032109;28;20057;-79
2023/01/09 03:06:48;;;;;;;23.25;11.48;;;-16.20;94.10;;;;;;5014484;28;20037;-79
2023/01/09 03:09:33;;;;;;;25.98;14.60;;;-16.20;94.20;;;;;;5027743;28;20037;-80
2023/01/09 03:12:37;;;;;;;15.55;9.10;;;-16.10;94.40;;;;;;5029590;28;20090;-79
2023/01/09 03:15:24;;;;;;;12.73;9.57;;;-16.00;94.50;;;;;;5032089;28;20053;-78
2023/01/09 03:18:27;;;;;;;24.15;13.07;;;-16.00;94.60;;;;;;5031936;28;20024;-80
2023/01/09 03:21:11;;;;;;;21.35;11.48;;;-15.90;94.50;;;;;;5018645;28;20359;-79
2023/01/09 03:23:58;;;;;;;19.63;10.57;;;-15.80;94.60;;;;;;5031520;28;20049;-79
2023/01/09 03:27:01;;;;;;;15.25;9.07;;;-15.70;94.60;;;;;;5031971;28;20037;-79
2023/01/09 03:30:04;;;;;;;18.02;8.57;;;-15.70;94.50;;;;;;5019530;28;20029;-78
2023/01/09 03:32:58;;;;;;;22.75;11.23;;;-15.70;94.40;;;;;;5032005;28;20036;-78
2023/01/09 03:36:01;;;;;;;18.92;12.15;;;-15.70;94.30;;;;;;5031987;28;20021;-81
2023/01/09 03:38:45;;;;;;;18.45;10.57;;;-15.70;94.40;;;;;;5019429;28;20084;-81
2023/01/09 03:41:29;;;;;;;20.98;10.65;;;-15.70;94.40;;;;;;5032406;28;20029;-79
2023/01/09 03:44:33;;;;;;;26.55;14.68;;;-15.70;94.40;;;;;;5033180;28;20056;-79
2023/01/09 03:47:36;;;;;;;19.45;9.93;;;-15.70;94.30;;;;;;5019630;28;20479;-80
2023/01/09 03:50:21;;;;;;;21.67;7.95;;;-15.70;94.30;;;;;;5046005;28;20025;-78
2023/01/09 03:53:24;;;;;;;24.00;11.32;;;-15.70;94.00;;;;;;5032017;28;20095;-79
2023/01/09 03:56:27;;;;;;;16.90;7.40;;;-15.90;93.80;;;;;;5022122;28;20034;-80
2023/01/09 03:58:53;;;;;;;21.83;12.60;;;-15.90;93.80;;;;;;5019373;28;20096;-79
2023/01/09 04:01:56;;;;;;;25.33;13.07;;;-16.00;93.90;;;;;;5044920;28;20688;-78
2023/01/09 04:04:40;;;;;;;6.57;6.03;;;-16.00;94.00;;;;;;5022274;28;20159;-78
2023/01/09 04:07:44;;;;;;;12.57;8.77;;;-16.00;94.00;;;;;;5031497;28;20394;-80
2023/01/09 04:10:28;;;;;;;22.63;11.68;;;-16.00;94.10;;;;;;5015032;28;20037;-82
2023/01/09 04:13:31;;;;;;;33.38;18.30;;;-16.00;94.00;;;;;;5014155;28;20052;-81
2023/01/09 04:16:35;;;;;;;39.65;18.75;;;-16.00;94.30;;;;;;5002242;28;20564;-79
2023/01/09 04:19:38;;;;;;;29.08;12.23;;;-15.90;94.30;;;;;;5046643;28;20116;-80
2023/01/09 04:22:41;;;;;;;25.83;11.52;;;-15.90;94.30;;;;;;5032002;28;20422;-80
2023/01/09 04:25:26;;;;;;;22.38;10.65;;;-15.90;94.50;;;;;;5031523;28;20104;-79
2023/01/09 04:28:29;;;;;;;13.45;8.05;;;-15.80;94.50;;;;;;5019837;28;20402;-79
2023/01/09 04:31:32;;;;;;;20.10;8.73;;;-15.80;94.50;;;;;;5031214;28;20021;-80
2023/01/09 04:34:35;;;;;;;20.30;9.85;;;-15.80;94.50;;;;;;5013530;28;20022;-80
2023/01/09 04:37:01;;;;;;;28.90;10.38;;;-15.70;94.60;;;;;;5033023;28;20029;-80
2023/01/09 04:39:46;;;;;;;25.30;11.02;;;-15.60;94.60;;;;;;5030905;28;20109;-79
2023/01/09 04:42:50;;;;;;;25.70;10.27;;;-15.60;94.70;;;;;;5034901;28;20064;-80
2023/01/09 04:45:34;;;;;;;22.23;10.45;;;-15.60;94.70;;;;;;5022279;28;20026;-78
2023/01/09 04:48:37;;;;;;;15.00;7.07;;;-15.60;94.60;;;;;;5034771;28;20029;-79
2023/01/09 04:51:40;;;;;;;23.20;12.52;;;-15.50;94.80;;;;;;5035021;28;20022;-81
2023/01/09 04:54:25;;;;;;;28.90;12.57;;;-15.50;94.80;;;;;;5024764;28;20398;-81
2023/01/09 04:57:28;;;;;;;35.35;16.85;;;-15.40;94.80;;;;;;5034230;28;20044;-79
2023/01/09 05:00:31;;;;;;;25.98;13.55;;;-15.30;94.90;;;;;;5034369;28;20083;-80
2023/01/09 05:03:16;;;;;;;27.85;14.65;;;-15.30;94.90;;;;;;5034510;28;20046;-81
2023/01/09 05:06:19;;;;;;;25.83;10.82;;;-15.30;94.80;;;;;;5022316;28;20041;-78
2023/01/09 05:09:23;;;;;;;13.80;9.20;;;-15.30;94.70;;;;;;5034629;28;20031;-79
2023/01/09 05:12:07;;;;;;;13.98;9.05;;;-15.30;94.70;;;;;;5018267;28;20053;-79
2023/01/09 05:14:52;;;;;;;22.92;10.32;;;-15.20;94.70;;;;;;5043811;28;20021;-80
2023/01/09 05:17:18;;;;;;;27.15;12.38;;;-15.20;94.70;;;;;;5034050;28;20044;-81
2023/01/09 05:20:21;;;;;;;19.23;8.30;;;-15.20;94.70;;;;;;5034417;28;20025;-79
2023/01/09 05:23:05;;;;;;;24.83;11.85;;;-15.20;94.70;;;;;;5014989;28;20045;-79
2023/01/09 05:25:50;;;;;;;23.38;11.40;;;-15.20;94.60;;;;;;5033928;28;20025;-80
2023/01/09 05:28:34;;;;;;;4.60;3.25;;;-15.20;94.70;;;;;;5035690;28;20026;-80
2023/01/09 05:31:18;;;;;;;22.77;9.32;;;-15.20;94.80;;;;;;5037001;28;20028;-80
2023/01/09 05:33:44;;;;;;;16.85;8.68;;;-15.20;94.70;;;;;;5034154;28;20088;-82
2023/01/09 05:36:29;;;;;;;10.27;6.30;;;-15.10;94.70;;;;;;5033898;28;20013;-82
2023/01/09 05:39:32;;;;;;;19.00;9.40;;;-15.20;94.60;;;;;;5036846;28;20025;-81
2023/01/09 05:42:35;;;;;;;22.73;8.38;;;-15.10;94.70;;;;;;5021970;28;20473;-81
2023/01/09 05:45:19;;;;;;;13.85;6.82;;;-15.00;94.80;;;;;;5033668;28;20018;-80
2023/01/09 05:48:22;;;;;;;14.23;7.28;;;-15.00;94.70;;;;;;5033068;28;20029;-78
2023/01/09 05:51:07;;;;;;;10.43;6.60;;;-15.00;94.70;;;;;;5025329;28;20024;-80
2023/01/09 05:54:10;;;;;;;11.38;5.03;;;-15.10;94.30;;;;;;5032550;28;20032;-80
2023/01/09 05:56:54;;;;;;;16.30;7.53;;;-15.20;94.40;;;;;;5033124;28;20129;-80
2023/01/09 05:59:57;;;;;;;13.18;6.60;;;-15.20;94.60;;;;;;5033687;28;20101;-82
2023/01/09 06:02:41;;;;;;;12.73;5.32;;;-15.10;94.70;;;;;;5031441;28;20402;-80
2023/01/09 06:05:45;;;;;;;12.50;6.68;;;-15.10;94.80;;;;;;5033341;28;20021;-80
2023/01/09 06:08:48;;;;;;;17.00;8.45;;;-15.00;94.80;;;;;;5033556;28;20030;-81
2023/01/09 06:11:54;;;;;;;5.93;3.45;;;-15.00;94.80;;;;;;5022761;28;20033;-80
2023/01/09 06:14:39;;;;;;;11.88;5.32;;;-15.00;94.60;;;;;;5029554;28;20079;-80
2023/01/09 06:17:42;;;;;;;16.00;9.63;;;-15.10;94.40;;;;;;5015408;28;20021;-81
2023/01/09 06:20:45;;;;;;;16.17;5.93;;;-15.20;94.40;;;;;;5027322;28;20017;-83
2023/01/09 06:23:48;;;;;;;21.10;7.97;;;-15.20;94.50;;;;;;5022709;28;20025;-82
2023/01/09 06:26:14;;;;;;;22.95;9.75;;;-15.20;94.60;;;;;;5028278;28;20526;-80
2023/01/09 06:29:17;;;;;;;7.10;3.83;;;-15.20;94.60;;;;;;5032487;28;20092;-81
2023/01/09 06:32:21;;;;;;;13.88;6.30;;;-15.10;94.80;;;;;;5031478;28;20109;-81
2023/01/09 06:35:24;;;;;;;20.60;7.63;;;-15.00;94.90;;;;;;5025429;28;20363;-81
2023/01/09 06:38:27;;;;;;;19.65;7.20;;;-15.00;94.80;;;;;;5027973;28;20383;-79
2023/01/09 06:41:12;;;;;;;10.48;6.68;;;-15.00;95.00;;;;;;5033576;28;20390;-80
2023/01/09 06:44:15;;;;;;;15.85;6.82;;;-14.90;95.00;;;;;;5023565;28;20053;-83
2023/01/09 06:47:17;;;;;;;16.00;7.03;;;-14.90;94.90;;;;;;5031930;28;20040;-82
2023/01/09 06:50:02;;;;;;;7.32;5.32;;;-15.00;94.80;;;;;;5018246;28;20056;-82
2023/01/09 06:53:05;;;;;;;11.75;6.25;;;-14.90;94.90;;;;;;5033143;28;20025;-82
2023/01/09 06:56:08;;;;;;;15.52;7.40;;;-14.90;94.90;;;;;;5032607;28;20022;-80
2023/01/09 06:58:53;;;;;;;12.88;6.10;;;-14.90;94.80;;;;;;5032064;28;20025;-83
2023/01/09 07:01:40;;;;;;;5.60;3.63;;;-14.90;94.80;;;;;;5032526;28;20050;-80
2023/01/09 07:04:43;;;;;;;5.53;3.55;;;-14.80;94.80;;;;;;5032095;28;20075;-82
2023/01/09 07:07:46;;;;;;;7.72;5.55;;;-14.90;94.70;;;;;;5036089;28;20033;-80
2023/01/09 07:10:30;;;;;;;8.48;6.32;;;-14.90;94.60;;;;;;5032910;28;20033;-80
2023/01/09 07:13:34;;;;;;;13.30;6.55;;;-14.90;94.70;;;;;;5035577;28;20121;-82
2023/01/09 07:16:18;;;;;;;6.78;3.80;;;-14.80;94.60;;;;;;5035871;28;20572;-82
2023/01/09 07:19:02;;;;;;;19.20;6.43;;;-14.80;94.60;;;;;;5032535;28;20681;-82
2023/01/09 07:22:05;;;;;;;16.77;6.70;;;-14.80;94.50;;;;;;5032338;28;20108;-82
2023/01/09 07:25:08;;;;;;;18.25;6.00;;;-14.70;94.60;;;;;;5022211;28;20057;-81
2023/01/09 07:27:34;;;;;;;12.50;6.10;;;-14.70;94.60;;;;;;5031838;28;20459;-80
2023/01/09 07:30:19;;;;;;;13.07;5.93;;;-14.70;94.30;;;;;;5031900;28;20097;-81
2023/01/09 07:33:22;;;;;;;14.55;7.47;;;-14.70;94.50;;;;;;5032004;28;20112;-79
2023/01/09 07:36:08;;;;;;;12.23;5.50;;;-14.60;94.60;;;;;;5029501;28;20056;-77
2023/01/09 07:38:53;;;;;;;13.05;5.25;;;-14.50;94.80;;;;;;5028861;28;20026;-79
2023/01/09 07:41:57;;;;;;;18.95;8.75;;;-14.30;94.70;;;;;;5031678;28;20172;-81
2023/01/09 07:45:00;;;;;;;17.58;7.53;;;-14.20;94.70;;;;;;5025899;28;20443;-79
2023/01/09 07:48:03;;;;;;;18.13;7.30;;;-14.10;94.60;;;;;;5031630;28;20038;-81
2023/01/09 07:50:48;;;;;;;11.23;8.43;;;-14.00;94.50;;;;;;5032112;28;20021;-80
2023/01/09 07:53:51;;;;;;;12.23;7.82;;;-14.00;94.10;;;;;;5013864;28;20025;-79
2023/01/09 07:56:35;;;;;;;17.13;9.20;;;-13.90;94.30;;;;;;5026166;28;20424;-81
2023/01/09 07:59:01;;;;;;;20.15;9.18;;;-13.90;94.20;;;;;;5014213;28;20063;-80
2023/01/09 08:01:49;;;;;;;13.68;7.22;;;-13.80;94.10;;;;;;5032713;28;20065;-80
2023/01/09 08:04:33;;;;;;;14.88;7.65;;;-13.90;93.90;;;;;;5027732;28;20088;-82
2023/01/09 08:07:18;;;;;;;19.08;7.55;;;-13.80;93.80;;;;;;5033719;28;20072;-79
2023/01/09 08:10:02;;;;;;;15.60;6.05;;;-13.90;93.60;;;;;;5024002;28;20022;-80
2023/01/09 08:13:05;;;;;;;12.18;6.47;;;-13.80;93.80;;;;;;5035384;28;20049;-82
2023/01/09 08:16:13;;;;;;;18.23;9.48;;;-13.90;92.90;;;;;;5036576;28;20494;-81
2023/01/09 08:19:16;;;;;;;16.05;8.23;;;-13.90;92.80;;;;;;5031915;28;20026;-83
2023/01/09 08:22:19;;;;;;;17.80;7.30;;;-14.10;92.30;;;;;;5029937;28;20033;-81
2023/01/09 08:25:22;;;;;;;23.20;10.57;;;-14.20;92.30;;;;;;5034854;28;20049;-80
2023/01/09 08:27:48;;;;;;;21.27;8.07;;;-14.20;92.00;;;;;;5017652;28;20032;-80
2023/01/09 08:30:54;;;;;;;18.58;9.07;;;-14.10;92.20;;;;;;5035408;28;20403;-79
2023/01/09 08:33:38;;;;;;;;;;;-14.10;92.20;;;;;;5026893;28;20037;-80
2023/01/09 08:36:44;;;;;;;8.90;6.07;;;-14.00;92.40;;;;;;5037452;28;20008;-80
2023/01/09 08:39:29;;;;;;;;;;;-14.10;92.00;;;;;;5035580;28;20100;-81
2023/01/09 08:48:38;;;;;;;12.80;8.38;;;-14.10;92.00;;;;;;5034729;28;20052;-79
2023/01/09 08:51:41;;;;;;;18.30;9.15;;;-14.00;91.90;;;;;;5032492;28;20029;-79
2023/01/09 08:54:26;;;;;;;25.50;9.55;;;-14.00;91.60;;;;;;5035693;28;20100;-80
2023/01/09 08:57:29;;;;;;;10.80;5.80;;;-14.10;91.40;;;;;;5019172;28;20025;-79
2023/01/09 09:00:32;;;;;;;14.30;8.13;;;-14.20;91.50;;;;;;5028681;28;20037;-82
2023/01/09 09:03:35;;;;;;;15.00;7.55;;;-14.20;91.60;;;;;;5031442;28;20049;-81
2023/01/09 09:06:39;;;;;;;16.08;6.88;;;-14.10;91.60;;;;;;5016633;28;20041;-83
2023/01/09 09:09:29;;;;;;;19.40;10.35;;;-14.10;91.50;;;;;;5028263;28;20032;-80
2023/01/09 09:12:31;;;;;;;23.15;9.10;;;-14.40;90.50;;;;;;5030744;28;20040;-81
2023/01/09 09:15:22;;;;;;;20.95;12.40;;;-14.60;90.20;;;;;;5034537;28;20021;-81
2023/01/09 09:18:29;;;;;;;17.30;9.23;;;-14.90;90.20;;;;;;5034237;28;20121;-81
2023/01/09 09:21:32;;;;;;;16.15;9.63;;;-14.90;90.90;;;;;;5034517;28;20434;-81
2023/01/09 09:24:35;;;;;;;21.63;10.88;;;-14.70;90.70;;;;;;5030875;28;20025;-78
2023/01/09 09:27:19;;;;;;;12.52;8.82;;;-14.60;90.90;;;;;;5033658;28;20049;-78
2023/01/09 09:30:23;;;;;;;18.92;9.18;;;-14.40;90.90;;;;;;5033745;28;20021;-80
2023/01/09 09:33:26;;;;;;;16.85;9.15;;;-14.20;90.80;;;;;;5016557;28;20021;-80
2023/01/09 09:36:29;;;;;;;13.38;8.90;;;-14.00;90.50;;;;;;5032630;28;20383;-80
2023/01/09 09:39:32;;;;;;;18.90;10.38;;;-14.10;89.40;;;;;;5019798;28;20033;-79
2023/01/09 09:46:05;;;;;;;23.25;11.35;;;-14.10;90.20;;;;;;5021063;28;20102;-79
2023/01/09 09:49:08;;;;;;;16.25;8.73;;;-14.20;90.10;;;;;;5016506;28;20033;-80
2023/01/09 09:52:11;;;;;;;15.98;7.80;;;-14.40;90.10;;;;;;5019334;28;20775;-79
2023/01/09 09:55:14;;;;;;;24.02;12.15;;;-14.50;90.10;;;;;;5034592;28;20071;-81
2023/01/09 09:58:20;;;;;;;27.83;12.88;;;-14.60;90.40;;;;;;5041449;28;20450;-81
2023/01/09 10:01:05;;;;;;;16.10;8.55;;;-14.70;90.00;;;;;;5028348;28;20021;-81
2023/01/09 10:04:08;;;;;;;17.02;7.53;;;-14.90;90.10;;;;;;5035851;28;20021;-81
2023/01/09 10:06:55;;;;;;;17.42;8.63;;;-15.00;90.10;;;;;;5033175;28;20030;-80
2023/01/09 10:09:53;;;;;;;16.25;7.82;;;-15.10;90.30;;;;;;5032852;28;20025;-80
2023/01/09 10:14:03;;;;;;;19.35;8.88;;;-15.00;90.50;;;;;;5015616;28;20025;-80
2023/01/09 10:16:22;;;;;;;20.60;9.00;;;-14.70;91.00;;;;;;5033513;28;20033;-83
2023/01/09 10:19:25;;;;;;;14.77;8.02;;;-13.90;91.40;;;;;;5033533;28;20087;-82
2023/01/09 10:22:29;;;;;;;13.65;9.82;;;-13.30;90.90;;;;;;5033296;28;20560;-83
2023/01/09 10:25:13;;;;;;;21.45;10.80;;;-12.50;90.90;;;;;;5033052;28;20029;-80
2023/01/09 10:28:16;;;;;;;21.40;8.82;;;-11.90;90.50;;;;;;5024012;28;20064;-82
2023/01/09 10:31:20;;;;;;;12.05;7.38;;;-11.40;90.40;;;;;;5016798;28;20052;-82
2023/01/09 10:34:23;;;;;;;18.63;9.40;;;-11.00;90.00;;;;;;5031237;28;20036;-81
2023/01/09 10:37:29;;;;;;;24.52;9.75;;;-11.00;88.70;;;;;;5025164;28;20395;-81
2023/01/09 10:40:13;;;;;;;15.80;8.35;;;-11.40;86.20;;;;;;5034579;28;20074;-79
2023/01/09 10:43:01;;;;;;;20.10;9.38;;;-11.90;86.00;;;;;;5019372;28;20041;-80
2023/01/09 10:46:12;;;;;;;17.73;9.52;;;-12.40;85.60;;;;;;5021597;28;20064;-81
2023/01/09 10:49:05;;;;;;;18.75;9.65;;;-12.80;85.90;;;;;;5032775;28;20026;-79
2023/01/09 10:52:12;;;;;;;16.67;10.18;;;-13.00;86.30;;;;;;5014753;28;20041;-79
2023/01/09 10:55:02;;;;;;;18.95;9.77;;;-13.20;86.90;;;;;;5032163;28;20487;-82
2023/01/09 10:58:00;;;;;;;28.92;13.05;;;-13.30;87.20;;;;;;5030272;28;20382;-81
2023/01/09 11:00:27;;;;;;;20.08;10.60;;;-13.40;87.30;;;;;;5024996;28;20051;-79
2023/01/09 11:03:16;;;;;;;15.55;8.05;;;-13.50;87.20;;;;;;5026408;28;20067;-88
2023/01/09 11:06:20;;;;;;;18.20;8.57;;;-13.70;87.50;;;;;;5033018;28;20056;-81
2023/01/09 11:09:23;;;;;;;17.52;6.68;;;-13.80;88.00;;;;;;5012505;28;20018;-80
2023/01/09 11:11:52;;;;;;;23.48;11.70;;;-14.00;88.40;;;;;;5029053;28;20356;-83
2023/01/09 11:14:31;;;;;;;12.60;9.18;;;-14.10;88.90;;;;;;5026421;28;20021;-85
2023/01/09 11:17:35;;;;;;;13.13;6.05;;;-14.10;89.40;;;;;;5036948;28;20017;-82
2023/01/09 11:20:38;;;;;;;19.27;7.43;;;-14.10;89.80;;;;;;5034756;28;20029;-85
2023/01/09 11:23:41;;;;;;;16.85;8.68;;;-14.20;89.90;;;;;;5023857;28;20021;-84
2023/01/09 11:26:44;;;;;;;10.07;6.85;;;-14.10;90.10;;;;;;5014326;28;20029;-79
2023/01/09 11:29:47;;;;;;;19.70;8.65;;;-14.20;90.10;;;;;;5032374;28;20029;-77
2023/01/09 11:32:39;;;;;;;22.48;7.45;;;-14.30;90.20;;;;;;5033078;28;20475;-78
2023/01/09 11:35:42;;;;;;;17.38;7.43;;;-14.40;90.20;;;;;;5031194;28;20364;-78
2023/01/09 11:38:45;;;;;;;13.52;6.45;;;-14.50;90.30;;;;;;5013981;28;20018;-81
2023/01/09 11:41:48;;;;;;;16.45;6.70;;;-14.60;90.40;;;;;;5014183;28;20029;-78
2023/01/09 11:44:33;;;;;;;18.40;9.10;;;-14.60;90.60;;;;;;5032469;28;20018;-81
2023/01/09 11:47:18;;;;;;;12.73;7.72;;;-14.70;90.50;;;;;;5036449;28;20038;-81
2023/01/09 11:50:02;;;;;;;10.63;6.72;;;-14.70;90.60;;;;;;5045317;28;20018;-80
2023/01/09 11:53:05;;;;;;;11.82;7.35;;;-14.70;90.80;;;;;;5032061;28;20026;-80
2023/01/09 11:55:54;;;;;;;29.33;7.97;;;-14.80;90.80;;;;;;5024561;28;20037;-80
2023/01/09 11:58:58;;;;;;;15.30;6.55;;;-14.90;90.90;;;;;;5035561;28;20059;-83
2023/01/09 12:01:43;;;;;;;11.88;7.30;;;-14.90;91.00;;;;;;5023788;28;20037;-80
2023/01/09 12:04:46;;;;;;;17.25;8.75;;;-14.90;91.10;;;;;;5035894;28;20025;-79
2023/01/09 12:07:49;;;;;;;22.50;8.80;;;-15.00;91.30;;;;;;5035473;28;20040;-78
2023/01/09 12:10:52;;;;;;;23.52;8.88;;;-14.90;91.40;;;;;;5035943;28;20055;-80
2023/01/09 12:13:47;;;;;;;10.40;6.40;;;-14.90;91.30;;;;;;5035512;28;20458;-79
2023/01/09 12:16:13;;;;;;;33.58;15.15;;;-15.00;91.10;;;;;;5035582;28;20021;-79
2023/01/09 12:19:00;;;;;;;20.98;11.52;;;-15.10;91.30;;;;;;5036015;28;20312;-78
2023/01/09 12:21:50;;;;;;;16.98;9.25;;;-15.20;91.40;;;;;;5035323;28;20494;-78
2023/01/09 12:24:53;;;;;;;16.33;8.85;;;-15.30;91.50;;;;;;5026123;28;20092;-80
2023/01/09 12:27:38;;;;;;;13.57;7.25;;;-15.30;91.70;;;;;;5021059;28;20088;-79
2023/01/09 12:30:41;;;;;;;16.30;8.20;;;-15.40;91.90;;;;;;5034705;28;20171;-79
2023/01/09 12:33:25;;;;;;;19.95;10.95;;;-15.40;91.90;;;;;;5024443;28;20098;-81
2023/01/09 12:36:26;;;;;;;20.60;7.97;;;-15.40;92.00;;;;;;5035265;28;20025;-80
2023/01/09 12:39:23;;;;;;;20.65;11.13;;;-15.40;91.90;;;;;;5026218;28;20033;-79
2023/01/09 12:42:26;;;;;;;12.10;6.70;;;-15.50;92.00;;;;;;5034867;28;20029;-78
2023/01/09 12:45:38;;;;;;;13.10;8.10;;;-15.50;92.00;;;;;;5034734;28;20084;-82
2023/01/09 12:48:41;;;;;;;15.55;8.80;;;-15.60;92.00;;;;;;5034882;28;20064;-84
2023/01/09 12:51:44;;;;;;;14.63;7.63;;;-15.60;92.10;;;;;;5028820;28;20021;-81
2023/01/09 12:54:50;;;;;;;7.07;5.55;;;-15.60;92.20;;;;;;5026601;28;20095;-83
2023/01/09 12:58:02;;;;;;;16.38;8.93;;;-15.70;92.20;;;;;;5035673;28;20025;-81
2023/01/09 13:00:51;;;;;;;15.45;8.15;;;-15.70;92.30;;;;;;5014479;28;20033;-81
2023/01/09 13:03:58;;;;;;;8.13;5.07;;;-15.70;92.30;;;;;;5035036;28;20120;-82
2023/01/09 13:06:44;;;;;;;12.55;8.05;;;-15.70;92.50;;;;;;5027781;28;20030;-81
2023/01/09 13:09:47;;;;;;;21.98;10.63;;;-15.70;92.50;;;;;;5034642;28;20433;-82
2023/01/09 13:12:53;;;;;;;21.77;9.00;;;-15.80;92.60;;;;;;5034884;28;20388;-81
2023/01/09 13:15:57;;;;;;;14.02;9.27;;;-15.70;92.70;;;;;;5025273;28;20083;-81
2023/01/09 13:19:00;;;;;;;15.65;7.18;;;-15.70;92.80;;;;;;5026321;28;20022;-81
2023/01/09 13:22:03;;;;;;;12.95;7.85;;;-15.70;92.80;;;;;;5032411;28;20127;-81
2023/01/09 13:25:00;;;;;;;19.35;8.40;;;-15.60;93.20;;;;;;5031069;28;20083;-80
2023/01/09 13:28:04;;;;;;;15.00;7.88;;;-15.60;93.00;;;;;;5034745;28;20028;-81
2023/01/09 13:31:07;;;;;;;17.08;6.80;;;-15.60;92.90;;;;;;5030325;28;20029;-82
2023/01/09 13:34:10;;;;;;;21.23;9.23;;;-15.60;93.10;;;;;;5026933;28;20513;-80
2023/01/09 13:37:13;;;;;;;19.13;9.10;;;-15.50;93.20;;;;;;5030879;28;20022;-80
2023/01/09 13:39:58;;;;;;;21.38;12.75;;;-15.50;93.20;;;;;;5034763;28;20029;-80
2023/01/09 13:43:01;;;;;;;16.85;8.77;;;-15.50;93.20;;;;;;5035179;28;20025;-80
2023/01/09 13:46:04;;;;;;;22.83;10.48;;;-15.50;93.30;;;;;;5035027;28;20022;-78
2023/01/09 13:48:49;;;;;;;10.25;6.25;;;-15.50;93.30;;;;;;5043471;28;20486;-80
2023/01/09 13:51:53;;;;;;;17.17;8.77;;;-15.40;93.50;;;;;;5029085;28;20030;-81
2023/01/09 13:55:00;;;;;;;12.07;8.55;;;-15.40;93.50;;;;;;5025732;28;20068;-80
2023/01/09 13:57:47;;;;;;;19.05;7.53;;;-15.40;93.50;;;;;;5033225;28;20029;-79
2023/01/09 14:00:50;;;;;;;19.13;7.95;;;-15.40;93.50;;;;;;5031625;28;20026;-78
2023/01/09 14:03:53;;;;;;;13.52;7.70;;;-15.40;93.50;;;;;;5033177;28;20037;-80
2023/01/09 14:06:38;;;;;;;16.77;8.00;;;-15.40;93.50;;;;;;5033447;28;20104;-80
2023/01/09 14:09:42;;;;;;;24.10;10.80;;;-15.40;93.60;;;;;;5015430;28;20021;-80
2023/01/09 14:12:11;;;;;;;13.18;8.50;;;-15.30;93.70;;;;;;5033988;28;20398;-80
2023/01/09 14:15:15;;;;;;;25.10;15.88;;;-15.30;94.00;;;;;;5033259;28;20048;-79
2023/01/09 14:18:18;;;;;;;16.80;7.38;;;-15.20;93.90;;;;;;5024188;28;20025;-79
2023/01/09 14:21:21;;;;;;;16.35;7.88;;;-15.20;93.90;;;;;;5017784;28;20109;-80
2023/01/09 14:24:19;;;;;;;25.15;10.15;;;-15.20;94.00;;;;;;5033058;28;20066;-81
2023/01/09 14:27:22;;;;;;;11.93;6.43;;;-15.20;94.00;;;;;;5026560;28;20040;-83
2023/01/09 14:30:25;;;;;;;19.38;8.20;;;-15.20;94.00;;;;;;5032762;28;20036;-78
2023/01/09 14:33:12;;;;;;;10.80;6.45;;;-15.10;94.10;;;;;;5030957;28;20083;-79
2023/01/09 14:36:00;;;;;;;13.93;7.05;;;-15.20;94.00;;;;;;5032400;28;20021;-80
2023/01/09 14:38:46;;;;;;;17.83;8.38;;;-15.10;94.10;;;;;;5024080;28;20057;-84
2023/01/09 14:42:01;;;;;;;21.10;8.80;;;-15.20;94.10;;;;;;5028490;28;20017;-82
2023/01/09 14:45:04;;;;;;;13.90;7.05;;;-15.20;94.10;;;;;;5029969;28;20402;-80
2023/01/09 14:48:08;;;;;;;15.52;8.85;;;-15.10;94.20;;;;;;5032609;28;20037;-80
2023/01/09 14:51:11;;;;;;;17.75;8.82;;;-15.10;94.20;;;;;;5032265;28;20022;-81
2023/01/09 14:54:15;;;;;;;14.88;8.23;;;-15.10;94.30;;;;;;5025985;28;20049;-80
2023/01/09 14:57:03;;;;;;;17.23;8.15;;;-15.00;94.30;;;;;;5029434;28;20056;-78
2023/01/09 15:00:06;;;;;;;18.20;8.88;;;-15.10;94.20;;;;;;5031752;28;20021;-79
2023/01/09 15:03:13;;;;;;;18.80;10.38;;;-15.10;94.20;;;;;;5021163;28;20042;-80